Time;durP1;ratioP1;P1;durP2;ratioP2;P2;SDS_P1;SDS_P2;PMS_P1;PMS_P2;Temp;Humidity;BMP_temperature;BMP_pressure;BME280_temperature;BME280_humidity;BME280_pressure;Samples;Min_cycle;Max_cycle;Signal;HPM_P1;HPM_P2
2022/07/09 00:00:11;;;;;;;1.10;0.50;;;18.00;56.10;;;;;;4979597;28;20034;-72
2022/07/09 00:02:37;;;;;;;1.92;0.57;;;18.00;56.20;;;;;;4956110;28;20034;-72
2022/07/09 00:05:03;;;;;;;1.52;0.70;;;17.90;56.20;;;;;;4957897;28;20039;-72
2022/07/09 00:07:28;;;;;;;2.03;0.65;;;17.90;56.40;;;;;;4952255;28;20042;-72
2022/07/09 00:09:54;;;;;;;1.52;0.50;;;17.90;56.60;;;;;;4976126;28;20035;-72
2022/07/09 00:12:19;;;;;;;1.10;0.57;;;17.80;56.60;;;;;;4983627;28;20039;-73
2022/07/09 00:14:45;;;;;;;3.83;0.55;;;17.80;56.70;;;;;;4974727;28;20042;-74
2022/07/09 00:17:10;;;;;;;1.95;0.68;;;17.70;56.70;;;;;;4974222;28;20042;-73
2022/07/09 00:19:36;;;;;;;0.52;0.50;;;17.70;56.90;;;;;;4980343;28;20033;-72
2022/07/09 00:22:02;;;;;;;1.05;0.45;;;17.70;57.00;;;;;;4958272;28;20041;-73
2022/07/09 00:24:27;;;;;;;2.45;0.75;;;17.70;57.10;;;;;;4955451;28;20553;-72
2022/07/09 00:26:53;;;;;;;2.28;0.60;;;17.60;57.30;;;;;;4954516;28;20116;-73
2022/07/09 00:29:18;;;;;;;2.97;0.90;;;17.50;57.20;;;;;;4940575;28;20050;-73
2022/07/09 00:31:45;;;;;;;1.02;0.60;;;17.50;57.40;;;;;;4918848;28;20051;-75
2022/07/09 00:34:11;;;;;;;3.50;0.80;;;17.50;57.40;;;;;;4937844;28;20053;-74
2022/07/09 00:36:37;;;;;;;1.98;0.50;;;17.40;57.60;;;;;;4968362;28;20055;-72
2022/07/09 00:39:02;;;;;;;1.08;0.60;;;17.40;57.70;;;;;;4962542;28;20581;-72
2022/07/09 00:41:28;;;;;;;2.15;0.80;;;17.40;57.90;;;;;;4931219;28;20679;-72
2022/07/09 00:43:53;;;;;;;2.45;0.80;;;17.40;57.90;;;;;;4922631;28;20046;-72
2022/07/09 00:46:19;;;;;;;1.23;0.50;;;17.30;57.90;;;;;;4941979;28;20122;-72
2022/07/09 00:48:44;;;;;;;2.08;0.80;;;17.30;58.10;;;;;;4936788;28;20098;-73
2022/07/09 00:51:11;;;;;;;1.05;0.50;;;17.20;58.10;;;;;;4972997;28;20114;-72
2022/07/09 00:53:37;;;;;;;1.30;0.60;;;17.20;58.30;;;;;;4949588;28;20043;-72
2022/07/09 00:56:03;;;;;;;1.00;0.70;;;17.20;58.30;;;;;;4940496;28;20043;-72
2022/07/09 00:58:29;;;;;;;1.83;0.75;;;17.20;58.50;;;;;;4967066;28;20034;-72
2022/07/09 01:00:54;;;;;;;0.98;0.60;;;17.10;58.60;;;;;;4964459;28;20039;-72
2022/07/09 01:03:20;;;;;;;1.20;0.70;;;17.10;58.80;;;;;;4988769;28;20129;-73
2022/07/09 01:05:46;;;;;;;2.03;0.70;;;17.10;58.80;;;;;;4946523;28;20112;-72
2022/07/09 01:08:11;;;;;;;4.30;0.77;;;17.10;58.90;;;;;;4945525;28;20724;-73
2022/07/09 01:10:37;;;;;;;3.38;0.82;;;17.00;58.90;;;;;;4941698;28;20050;-72
2022/07/09 01:13:04;;;;;;;1.15;0.80;;;17.00;59.70;;;;;;4934820;28;20091;-72
2022/07/09 01:15:30;;;;;;;1.05;0.68;;;17.00;59.20;;;;;;4962655;28;20059;-72
2022/07/09 01:17:57;;;;;;;1.58;0.80;;;17.00;59.30;;;;;;4962224;28;20062;-72
2022/07/09 01:20:23;;;;;;;3.03;0.70;;;17.00;59.30;;;;;;4952307;28;20030;-73
2022/07/09 01:22:49;;;;;;;1.05;0.50;;;16.90;59.30;;;;;;4989957;28;20064;-73
2022/07/09 01:25:16;;;;;;;1.17;0.50;;;16.90;59.40;;;;;;4991399;28;20035;-73
2022/07/09 01:27:41;;;;;;;7.97;1.08;;;16.90;59.50;;;;;;4983730;28;20030;-73
2022/07/09 01:30:07;;;;;;;2.63;1.00;;;16.90;59.70;;;;;;4970610;28;20027;-73
2022/07/09 01:32:32;;;;;;;1.60;0.60;;;16.90;59.70;;;;;;4972055;28;20030;-73
2022/07/09 01:34:58;;;;;;;1.70;0.60;;;16.80;59.70;;;;;;4973469;28;20027;-75
2022/07/09 01:37:24;;;;;;;1.10;0.80;;;16.80;59.90;;;;;;4971868;28;20560;-72
2022/07/09 01:39:52;;;;;;;0.90;0.70;;;16.80;59.90;;;;;;4953453;28;20074;-72
2022/07/09 01:42:18;;;;;;;4.93;1.30;;;16.80;60.00;;;;;;4934278;28;20134;-72
2022/07/09 01:44:44;;;;;;;0.70;0.70;;;16.80;60.00;;;;;;4939930;28;20069;-73
2022/07/09 01:47:10;;;;;;;1.13;0.80;;;16.80;60.20;;;;;;4929185;28;20031;-72
2022/07/09 01:49:35;;;;;;;0.82;0.80;;;16.80;60.20;;;;;;4965482;28;20037;-72
2022/07/09 01:52:01;;;;;;;0.88;0.88;;;16.80;60.20;;;;;;4943908;28;20063;-72
2022/07/09 01:54:26;;;;;;;1.60;0.80;;;16.80;60.40;;;;;;4935173;28;20110;-73
2022/07/09 01:56:52;;;;;;;1.45;1.00;;;16.80;60.50;;;;;;4954087;28;20134;-72
2022/07/09 01:59:17;;;;;;;3.40;0.88;;;16.80;60.60;;;;;;4942572;28;20703;-72
2022/07/09 02:01:43;;;;;;;0.80;0.70;;;16.70;60.70;;;;;;4945386;28;20584;-72
2022/07/09 02:04:08;;;;;;;3.03;0.85;;;16.70;60.80;;;;;;4940257;28;20820;-72
2022/07/09 02:06:34;;;;;;;2.38;0.63;;;16.70;60.80;;;;;;4941704;28;20046;-72
2022/07/09 02:09:00;;;;;;;2.85;0.80;;;16.70;60.90;;;;;;4929957;28;20919;-71
2022/07/09 02:11:25;;;;;;;0.70;0.60;;;16.70;61.10;;;;;;4956832;28;20035;-72
2022/07/09 02:13:51;;;;;;;1.48;0.70;;;16.70;61.10;;;;;;4966403;28;20816;-73
2022/07/09 02:16:16;;;;;;;1.65;0.77;;;16.60;61.20;;;;;;4959571;28;20126;-74
2022/07/09 02:18:42;;;;;;;1.17;0.80;;;16.60;61.20;;;;;;4935404;28;20123;-74
2022/07/09 02:21:07;;;;;;;1.65;0.90;;;16.60;61.30;;;;;;4929767;28;20194;-74
2022/07/09 02:23:33;;;;;;;2.65;0.80;;;16.60;61.30;;;;;;4946779;28;20053;-74
2022/07/09 02:25:58;;;;;;;1.85;0.95;;;16.60;61.40;;;;;;4961663;28;20040;-74
2022/07/09 02:28:24;;;;;;;1.63;0.80;;;16.60;61.60;;;;;;4942167;28;20142;-73
2022/07/09 02:30:49;;;;;;;1.60;0.88;;;16.60;61.60;;;;;;4975261;28;20035;-73
2022/07/09 02:33:15;;;;;;;1.55;0.75;;;16.60;61.80;;;;;;4976682;28;20559;-74
2022/07/09 02:35:40;;;;;;;1.02;0.65;;;16.50;61.70;;;;;;4959124;28;20051;-73
2022/07/09 02:38:06;;;;;;;1.45;0.80;;;16.50;61.80;;;;;;4940521;28;20403;-73
2022/07/09 02:40:32;;;;;;;1.00;0.80;;;16.50;61.90;;;;;;4960720;28;20031;-73
2022/07/09 02:42:57;;;;;;;0.73;0.70;;;16.50;61.90;;;;;;4974194;28;20038;-74
2022/07/09 02:45:23;;;;;;;1.65;0.77;;;16.50;62.10;;;;;;4940946;28;20924;-73
2022/07/09 02:47:48;;;;;;;1.55;0.73;;;16.50;62.10;;;;;;4956073;28;20582;-73
2022/07/09 02:50:14;;;;;;;2.13;0.90;;;16.50;62.20;;;;;;4956623;28;20042;-74
2022/07/09 02:52:39;;;;;;;2.42;1.20;;;16.50;62.20;;;;;;4955664;28;20046;-73
2022/07/09 02:55:05;;;;;;;1.75;1.08;;;16.50;62.30;;;;;;4979536;28;20632;-74
2022/07/09 02:57:31;;;;;;;1.75;0.70;;;16.50;62.40;;;;;;4953822;28;20059;-73
2022/07/09 02:59:56;;;;;;;2.35;0.80;;;16.40;62.20;;;;;;4959773;28;20059;-73
2022/07/09 03:02:22;;;;;;;1.35;0.80;;;16.40;62.40;;;;;;4958929;28;20515;-74
2022/07/09 03:04:48;;;;;;;2.80;0.90;;;16.50;62.60;;;;;;4923417;28;20031;-74
2022/07/09 03:07:14;;;;;;;0.88;0.70;;;16.50;62.80;;;;;;4972811;28;20051;-74
2022/07/09 03:09:39;;;;;;;0.65;0.63;;;16.50;62.80;;;;;;4943699;28;20050;-73
2022/07/09 03:12:06;;;;;;;2.25;0.85;;;16.50;63.60;;;;;;4942523;28;20051;-73
2022/07/09 03:14:31;;;;;;;2.25;1.10;;;16.50;62.80;;;;;;4953680;28;20038;-74
2022/07/09 03:16:57;;;;;;;2.10;0.95;;;16.50;62.90;;;;;;4937669;28;20129;-74
2022/07/09 03:19:22;;;;;;;1.98;0.80;;;16.50;62.90;;;;;;4966163;28;20039;-73
2022/07/09 03:21:48;;;;;;;1.08;0.65;;;16.40;62.90;;;;;;4952014;28;20043;-73
2022/07/09 03:24:14;;;;;;;1.23;0.73;;;16.40;63.60;;;;;;4946074;28;20049;-73
2022/07/09 03:26:39;;;;;;;2.22;1.00;;;16.50;63.20;;;;;;4962299;28;20046;-74
2022/07/09 03:29:05;;;;;;;1.83;1.00;;;16.40;63.30;;;;;;4958521;28;20046;-73
2022/07/09 03:31:30;;;;;;;2.03;0.70;;;16.40;63.20;;;;;;4957179;28;20043;-73
2022/07/09 03:33:56;;;;;;;2.05;0.95;;;16.40;63.30;;;;;;4950670;28;20039;-73
2022/07/09 03:36:21;;;;;;;2.75;1.10;;;16.40;63.30;;;;;;4924658;28;20593;-73
2022/07/09 03:38:47;;;;;;;1.85;0.80;;;16.40;63.40;;;;;;4938804;28;20534;-73
2022/07/09 03:41:12;;;;;;;1.13;0.90;;;16.40;63.40;;;;;;4938719;28;20046;-73
2022/07/09 03:43:38;;;;;;;1.35;1.05;;;16.40;63.40;;;;;;4954000;28;20447;-74
2022/07/09 03:46:04;;;;;;;1.45;0.63;;;16.40;63.50;;;;;;4954411;28;20038;-74
2022/07/09 03:48:29;;;;;;;0.70;0.70;;;16.40;63.50;;;;;;4959759;28;20144;-73
2022/07/09 03:50:55;;;;;;;1.08;0.80;;;16.40;63.60;;;;;;4948651;28;20499;-73
2022/07/09 03:53:21;;;;;;;1.52;0.80;;;16.40;63.60;;;;;;4952574;28;20062;-73
2022/07/09 03:55:46;;;;;;;2.25;0.95;;;16.40;63.50;;;;;;4958368;28;20031;-73
2022/07/09 03:58:12;;;;;;;1.90;1.00;;;16.40;63.60;;;;;;4967948;28;20046;-73
2022/07/09 04:00:37;;;;;;;1.38;0.70;;;16.40;63.80;;;;;;4962277;28;20062;-73
2022/07/09 04:03:03;;;;;;;2.78;1.25;;;16.40;63.80;;;;;;4966982;28;20117;-73
2022/07/09 04:05:28;;;;;;;1.10;0.90;;;16.40;63.80;;;;;;4918805;28;20035;-75
2022/07/09 04:07:54;;;;;;;1.38;0.77;;;16.40;63.90;;;;;;4942321;28;20516;-73
2022/07/09 04:10:20;;;;;;;3.08;1.00;;;16.40;64.00;;;;;;4974641;28;20461;-73
2022/07/09 04:12:46;;;;;;;1.05;0.90;;;16.30;63.90;;;;;;4961629;28;20042;-73
2022/07/09 04:15:11;;;;;;;0.95;0.90;;;16.30;64.00;;;;;;4962587;28;22583;-74
2022/07/09 04:17:37;;;;;;;1.98;0.90;;;16.30;64.10;;;;;;4948140;28;21052;-73
2022/07/09 04:20:02;;;;;;;2.22;0.80;;;16.30;64.10;;;;;;4932672;28;20050;-73
2022/07/09 04:22:28;;;;;;;0.68;0.57;;;16.30;64.10;;;;;;4947031;28;20032;-74
2022/07/09 04:24:53;;;;;;;2.25;0.90;;;16.30;64.20;;;;;;4945984;28;20392;-73
2022/07/09 04:27:19;;;;;;;1.60;0.90;;;16.30;64.30;;;;;;4946954;28;20037;-73
2022/07/09 04:29:45;;;;;;;1.63;0.93;;;16.30;64.40;;;;;;4954916;28;20034;-74
2022/07/09 04:32:10;;;;;;;3.58;1.35;;;16.30;64.50;;;;;;4955390;28;20043;-73
2022/07/09 04:34:36;;;;;;;2.58;1.00;;;16.30;64.50;;;;;;4973819;28;20516;-73
2022/07/09 04:37:01;;;;;;;1.23;0.80;;;16.30;64.60;;;;;;4952191;28;20170;-73
2022/07/09 04:39:27;;;;;;;3.08;0.90;;;16.30;64.70;;;;;;4974575;28;20119;-73
2022/07/09 04:41:52;;;;;;;2.60;0.95;;;16.30;64.80;;;;;;4963780;28;20562;-74
2022/07/09 04:44:18;;;;;;;1.50;0.90;;;16.30;64.80;;;;;;4961506;28;20054;-73
2022/07/09 04:46:44;;;;;;;1.38;0.70;;;16.30;64.90;;;;;;4932267;28;20117;-73
2022/07/09 04:49:09;;;;;;;2.55;0.82;;;16.30;65.10;;;;;;4977643;28;20030;-73
2022/07/09 04:51:35;;;;;;;1.67;1.00;;;16.30;65.20;;;;;;4932764;28;20039;-73
2022/07/09 04:54:00;;;;;;;1.00;1.00;;;16.30;65.40;;;;;;4948187;28;20030;-73
2022/07/09 04:56:26;;;;;;;1.40;1.02;;;16.30;65.40;;;;;;4915144;28;20035;-75
2022/07/09 04:58:52;;;;;;;2.95;1.10;;;16.30;65.40;;;;;;4966613;28;20035;-74
2022/07/09 05:01:20;;;;;;;1.98;0.90;;;16.30;65.50;;;;;;4961538;28;20067;-74
2022/07/09 05:03:46;;;;;;;1.70;1.00;;;16.40;65.60;;;;;;4929016;28;20038;-74
2022/07/09 05:06:14;;;;;;;2.40;1.35;;;16.40;65.50;;;;;;4938555;28;20043;-73
2022/07/09 05:08:39;;;;;;;1.52;0.93;;;16.40;65.70;;;;;;4964216;28;20413;-74
2022/07/09 05:11:05;;;;;;;2.55;1.10;;;16.50;65.80;;;;;;4969654;28;20038;-74
2022/07/09 05:13:30;;;;;;;3.45;1.35;;;16.50;65.90;;;;;;4960023;28;20277;-75
2022/07/09 05:15:56;;;;;;;1.70;0.90;;;16.60;66.10;;;;;;4957390;28;20073;-74
2022/07/09 05:18:22;;;;;;;2.95;1.15;;;16.60;66.20;;;;;;4953089;28;20044;-74
2022/07/09 05:20:47;;;;;;;2.95;1.05;;;16.60;66.10;;;;;;4947996;28;20077;-75
2022/07/09 05:23:13;;;;;;;2.72;1.20;;;16.70;66.30;;;;;;4940038;28;20043;-74
2022/07/09 05:25:38;;;;;;;4.63;1.23;;;16.70;66.40;;;;;;4961213;28;20069;-76
2022/07/09 05:28:04;;;;;;;1.13;1.02;;;16.70;66.40;;;;;;4957207;28;20061;-74
2022/07/09 05:30:29;;;;;;;1.75;1.13;;;16.80;66.30;;;;;;4956047;28;20096;-75
2022/07/09 05:32:55;;;;;;;1.58;1.20;;;16.80;66.50;;;;;;4966702;28;20039;-74
2022/07/09 05:35:20;;;;;;;3.25;1.10;;;16.90;66.60;;;;;;4949216;28;20400;-74
2022/07/09 05:37:46;;;;;;;2.58;1.20;;;16.90;66.70;;;;;;4931910;28;20040;-74
2022/07/09 05:40:12;;;;;;;3.60;1.30;;;16.90;66.70;;;;;;4944161;28;20097;-74
2022/07/09 05:42:38;;;;;;;1.85;1.20;;;17.00;66.80;;;;;;4940877;28;20626;-73
2022/07/09 05:45:05;;;;;;;1.38;1.15;;;17.10;67.80;;;;;;4956010;28;20028;-73
2022/07/09 05:47:31;;;;;;;2.22;1.30;;;17.10;66.90;;;;;;4935488;28;20046;-73
2022/07/09 05:49:56;;;;;;;1.67;1.00;;;17.20;67.00;;;;;;4960570;28;20028;-73
2022/07/09 05:52:22;;;;;;;1.55;1.10;;;17.20;67.00;;;;;;4923036;28;20612;-73
2022/07/09 05:54:47;;;;;;;2.72;1.40;;;17.30;67.10;;;;;;4974054;28;20046;-73
2022/07/09 05:57:13;;;;;;;3.10;1.10;;;17.30;67.00;;;;;;4927574;28;20043;-74
2022/07/09 05:59:38;;;;;;;2.75;1.10;;;17.40;67.00;;;;;;4959293;28;20038;-73
2022/07/09 06:02:05;;;;;;;3.90;1.23;;;17.40;67.00;;;;;;4941129;28;20462;-74
2022/07/09 06:04:31;;;;;;;3.60;1.27;;;17.50;67.10;;;;;;4949259;28;20042;-72
2022/07/09 06:06:56;;;;;;;2.22;1.00;;;17.60;67.10;;;;;;4950058;28;20031;-72
2022/07/09 06:09:22;;;;;;;2.72;1.25;;;17.60;67.00;;;;;;4940137;28;20189;-73
2022/07/09 06:11:47;;;;;;;3.42;1.30;;;17.70;66.90;;;;;;4942784;28;20076;-72
2022/07/09 06:14:13;;;;;;;2.08;0.82;;;17.80;66.90;;;;;;4937350;28;20094;-73
2022/07/09 06:16:38;;;;;;;1.90;1.05;;;17.80;66.80;;;;;;4951287;28;20026;-73
2022/07/09 06:19:04;;;;;;;2.05;1.10;;;17.90;66.80;;;;;;4943829;28;20034;-72
2022/07/09 06:21:29;;;;;;;2.15;1.20;;;18.00;66.90;;;;;;4953900;28;20166;-74
2022/07/09 06:23:55;;;;;;;4.85;1.20;;;18.00;66.80;;;;;;4944150;28;20077;-74
2022/07/09 06:26:20;;;;;;;3.85;1.05;;;18.10;66.80;;;;;;4942922;28;20031;-73
2022/07/09 06:28:46;;;;;;;2.70;1.00;;;18.20;66.80;;;;;;4960210;28;20124;-74
2022/07/09 06:31:12;;;;;;;3.10;1.55;;;18.30;66.80;;;;;;4945055;28;20046;-73
2022/07/09 06:33:38;;;;;;;1.40;1.10;;;18.40;66.80;;;;;;4937499;28;20043;-73
2022/07/09 06:36:03;;;;;;;1.55;0.90;;;18.50;66.70;;;;;;4948102;28;20091;-73
2022/07/09 06:38:29;;;;;;;5.43;1.23;;;18.50;66.70;;;;;;4954383;28;20042;-73
2022/07/09 06:40:55;;;;;;;1.52;0.95;;;18.60;66.60;;;;;;4934273;28;20031;-72
2022/07/09 06:43:21;;;;;;;2.60;0.95;;;18.70;66.40;;;;;;4942577;28;20130;-72
2022/07/09 06:45:47;;;;;;;2.92;1.17;;;18.80;66.30;;;;;;4955074;28;20102;-72
2022/07/09 06:48:13;;;;;;;4.03;1.50;;;18.90;66.20;;;;;;4959236;28;20186;-73
2022/07/09 06:50:38;;;;;;;1.15;0.80;;;19.00;66.10;;;;;;4947185;28;20037;-73
2022/07/09 06:53:04;;;;;;;2.95;0.90;;;19.10;65.90;;;;;;4949544;28;20042;-72
2022/07/09 06:55:30;;;;;;;3.10;1.00;;;19.30;66.00;;;;;;4959797;28;20032;-72
2022/07/09 06:57:57;;;;;;;1.88;1.25;;;19.50;65.80;;;;;;4945222;28;20023;-73
2022/07/09 07:00:23;;;;;;;1.17;0.95;;;19.70;65.60;;;;;;4912421;28;20102;-74
2022/07/09 07:02:49;;;;;;;3.35;1.42;;;19.80;65.20;;;;;;4944381;28;20113;-71
2022/07/09 07:05:15;;;;;;;1.65;0.90;;;20.00;65.00;;;;;;4967355;28;20514;-72
2022/07/09 07:07:40;;;;;;;3.45;1.30;;;20.10;64.70;;;;;;4951989;28;20043;-72
2022/07/09 07:10:06;;;;;;;2.20;1.10;;;20.20;64.40;;;;;;4960627;28;20027;-71
2022/07/09 07:12:31;;;;;;;2.67;1.05;;;20.40;64.00;;;;;;4949771;28;20114;-71
2022/07/09 07:14:57;;;;;;;2.88;1.10;;;20.50;63.70;;;;;;4960599;28;20126;-69
2022/07/09 07:17:22;;;;;;;3.20;1.35;;;20.70;63.60;;;;;;4943548;28;20105;-70
2022/07/09 07:19:48;;;;;;;3.63;1.27;;;20.80;63.20;;;;;;4942747;28;20957;-73
2022/07/09 07:22:14;;;;;;;2.00;1.13;;;20.90;62.80;;;;;;4940343;28;20102;-70
2022/07/09 07:24:40;;;;;;;2.20;1.08;;;21.10;62.50;;;;;;4947211;28;20500;-70
2022/07/09 07:27:05;;;;;;;1.67;1.00;;;21.20;62.20;;;;;;4964311;28;20065;-69
2022/07/09 07:29:31;;;;;;;3.63;1.35;;;21.30;62.00;;;;;;4954346;28;20035;-70
2022/07/09 07:31:57;;;;;;;6.53;1.48;;;21.50;61.70;;;;;;4945791;28;20034;-71
2022/07/09 07:34:24;;;;;;;4.40;1.60;;;21.70;61.20;;;;;;4942655;28;20034;-70
2022/07/09 07:36:51;;;;;;;4.18;1.33;;;21.90;61.20;;;;;;4964541;28;20057;-73
2022/07/09 07:39:16;;;;;;;3.67;1.50;;;22.00;60.40;;;;;;4966076;28;20097;-70
2022/07/09 07:41:42;;;;;;;4.82;1.52;;;22.20;60.00;;;;;;4947380;28;20043;-70
2022/07/09 07:44:08;;;;;;;2.47;1.30;;;22.30;59.50;;;;;;4947646;28;20123;-71
2022/07/09 07:46:33;;;;;;;2.47;1.35;;;22.50;59.30;;;;;;4941929;28;20126;-72
2022/07/09 07:48:59;;;;;;;3.88;1.55;;;22.60;59.00;;;;;;4955956;28;20070;-71
2022/07/09 07:51:24;;;;;;;2.08;1.40;;;22.70;58.80;;;;;;4946681;28;20068;-71
2022/07/09 07:53:50;;;;;;;4.60;1.48;;;22.80;58.50;;;;;;4953523;28;20109;-72
2022/07/09 07:56:15;;;;;;;4.63;1.23;;;23.00;58.10;;;;;;4934510;28;20402;-71
2022/07/09 07:58:41;;;;;;;4.10;1.42;;;23.10;57.90;;;;;;4951897;28;21575;-71
2022/07/09 08:01:06;;;;;;;3.60;1.48;;;23.20;57.60;;;;;;4956890;28;20046;-71
2022/07/09 08:03:32;;;;;;;4.43;1.50;;;23.40;57.30;;;;;;4944140;28;20031;-71
2022/07/09 08:05:57;;;;;;;2.85;1.23;;;23.50;57.10;;;;;;4946835;28;20035;-72
2022/07/09 08:08:23;;;;;;;5.07;1.50;;;23.50;56.70;;;;;;4933294;28;20057;-71
2022/07/09 08:10:49;;;;;;;2.67;1.40;;;23.60;56.50;;;;;;4919384;28;20155;-71
2022/07/09 08:13:15;;;;;;;2.35;1.35;;;23.70;56.20;;;;;;4943724;28;20860;-72
2022/07/09 08:15:41;;;;;;;3.72;1.40;;;23.70;56.00;;;;;;4922613;28;20659;-72
2022/07/09 08:18:11;;;;;;;2.38;1.10;;;23.80;55.80;;;;;;4948952;28;20048;-72
2022/07/09 08:20:38;;;;;;;8.85;1.95;;;23.90;55.70;;;;;;4942753;28;20141;-71
2022/07/09 08:23:04;;;;;;;3.00;1.50;;;23.90;55.40;;;;;;4958161;28;20187;-71
2022/07/09 08:25:29;;;;;;;4.03;1.48;;;24.10;55.30;;;;;;4943814;28;20520;-72
2022/07/09 08:27:54;;;;;;;6.10;1.83;;;24.20;55.10;;;;;;4959469;28;20039;-71
2022/07/09 08:30:20;;;;;;;7.45;1.38;;;24.30;54.80;;;;;;4948579;28;20055;-72
2022/07/09 08:32:46;;;;;;;5.80;1.52;;;24.50;54.60;;;;;;4939009;28;20038;-72
2022/07/09 08:35:11;;;;;;;3.03;1.10;;;24.60;54.40;;;;;;4935690;28;20436;-71
2022/07/09 08:37:37;;;;;;;5.28;1.20;;;24.70;54.10;;;;;;4966702;28;20527;-71
2022/07/09 08:40:02;;;;;;;2.10;1.20;;;24.80;53.80;;;;;;4928527;28;20524;-71
2022/07/09 08:42:28;;;;;;;3.67;0.80;;;24.90;53.50;;;;;;4961215;28;20039;-72
2022/07/09 08:44:54;;;;;;;5.05;0.90;;;24.90;53.20;;;;;;4950597;28;20058;-72
2022/07/09 08:47:19;;;;;;;3.85;1.10;;;25.00;52.90;;;;;;4958668;28;20117;-72
2022/07/09 08:49:45;;;;;;;2.72;1.33;;;25.10;52.60;;;;;;4947034;28;20048;-72
2022/07/09 08:52:10;;;;;;;3.17;1.20;;;25.20;52.40;;;;;;4943914;28;20046;-72
2022/07/09 08:54:40;;;;;;;5.05;1.13;;;25.20;52.20;;;;;;4952154;28;20039;-72
2022/07/09 08:57:06;;;;;;;2.20;1.05;;;25.20;51.90;;;;;;4932250;28;20034;-73
2022/07/09 08:59:32;;;;;;;3.38;1.73;;;25.30;51.80;;;;;;4923719;28;20189;-72
2022/07/09 09:01:58;;;;;;;1.20;1.02;;;25.30;51.70;;;;;;4952915;28;20050;-73
2022/07/09 09:04:24;;;;;;;2.30;0.88;;;25.30;51.60;;;;;;4940816;28;20492;-72
2022/07/09 09:06:50;;;;;;;4.90;1.10;;;25.30;51.40;;;;;;4963900;28;20093;-72
2022/07/09 09:09:19;;;;;;;1.45;1.00;;;25.30;51.40;;;;;;4956152;28;20110;-72
2022/07/09 09:11:47;;;;;;;2.72;1.20;;;25.20;51.10;;;;;;4941045;28;20045;-73
2022/07/09 09:14:21;;;;;;;2.10;0.98;;;25.20;51.10;;;;;;4947661;28;20133;-72
2022/07/09 09:16:46;;;;;;;2.83;1.13;;;25.20;50.90;;;;;;4935310;28;20038;-73
2022/07/09 09:19:12;;;;;;;4.15;1.30;;;25.20;50.90;;;;;;4932237;28;20049;-73
2022/07/09 09:21:37;;;;;;;2.92;1.17;;;25.10;50.90;;;;;;4950088;28;20043;-72
2022/07/09 09:24:03;;;;;;;2.20;1.13;;;25.10;50.80;;;;;;4959440;28;20046;-74
2022/07/09 09:26:29;;;;;;;1.48;0.93;;;25.00;50.70;;;;;;4920150;28;20038;-72
2022/07/09 09:28:55;;;;;;;4.47;1.38;;;25.00;50.60;;;;;;4933753;28;20054;-72
2022/07/09 09:31:22;;;;;;;4.65;1.15;;;25.00;50.50;;;;;;4931637;28;20396;-72
2022/07/09 09:33:48;;;;;;;3.15;1.60;;;25.00;50.50;;;;;;4931000;28;20039;-72
2022/07/09 09:36:37;;;;;;;2.85;1.30;;;24.90;50.30;;;;;;4955441;28;20058;-73
2022/07/09 09:39:11;;;;;;;2.75;1.25;;;24.90;50.00;;;;;;4945209;28;20042;-73
2022/07/09 09:41:37;;;;;;;2.17;1.10;;;24.90;50.00;;;;;;4940329;28;20933;-73
2022/07/09 09:44:05;;;;;;;1.70;1.10;;;24.90;50.10;;;;;;4951020;28;20043;-74
2022/07/09 09:46:33;;;;;;;3.90;1.40;;;24.90;50.10;;;;;;4947023;28;20035;-73
2022/07/09 09:48:59;;;;;;;1.75;1.25;;;24.90;50.00;;;;;;4976622;28;20130;-72
2022/07/09 09:51:24;;;;;;;1.92;1.30;;;25.00;50.00;;;;;;4935520;28;20113;-73
2022/07/09 09:53:50;;;;;;;3.67;1.60;;;24.90;49.90;;;;;;4935112;28;20706;-74
2022/07/09 09:56:15;;;;;;;1.63;1.20;;;25.00;49.90;;;;;;4951610;28;20840;-73
2022/07/09 09:58:41;;;;;;;1.83;1.23;;;24.90;49.70;;;;;;4952625;28;20039;-74
2022/07/09 10:01:07;;;;;;;3.05;1.30;;;25.00;49.80;;;;;;4935609;28;20730;-73
2022/07/09 10:03:33;;;;;;;1.65;1.40;;;25.00;49.70;;;;;;4914621;28;20035;-74
2022/07/09 10:05:58;;;;;;;3.83;1.23;;;25.00;49.60;;;;;;4936323;28;20050;-73
2022/07/09 10:08:24;;;;;;;2.20;1.80;;;25.10;49.70;;;;;;4928693;28;20809;-73
2022/07/09 10:10:52;;;;;;;2.47;1.73;;;25.10;49.60;;;;;;4932808;28;20105;-73
2022/07/09 10:13:21;;;;;;;3.22;1.58;;;25.20;49.40;;;;;;4943544;28;20040;-73
2022/07/09 10:15:50;;;;;;;3.30;1.50;;;25.30;49.30;;;;;;4937836;28;20729;-74
2022/07/09 10:18:19;;;;;;;3.40;1.80;;;25.30;49.10;;;;;;4943154;28;20059;-73
2022/07/09 10:20:44;;;;;;;4.20;1.50;;;25.30;48.80;;;;;;4953569;28;20569;-73
2022/07/09 10:23:22;;;;;;;5.15;2.65;;;25.30;48.60;;;;;;4940738;28;20138;-73
2022/07/09 10:25:52;;;;;;;4.43;1.80;;;25.30;48.20;;;;;;4975231;28;20039;-74
2022/07/09 10:28:18;;;;;;;7.00;1.83;;;25.30;49.10;;;;;;4935065;28;20043;-73
2022/07/09 10:30:44;;;;;;;2.67;1.88;;;25.30;48.40;;;;;;4917441;28;20045;-74
2022/07/09 10:33:13;;;;;;;2.42;1.58;;;25.30;48.40;;;;;;4944708;28;20424;-73
2022/07/09 10:35:49;;;;;;;5.03;1.58;;;25.40;48.30;;;;;;4949887;28;20088;-73
2022/07/09 10:38:15;;;;;;;2.40;1.65;;;25.40;48.10;;;;;;4966008;28;20077;-73
2022/07/09 10:40:48;;;;;;;4.10;1.95;;;25.50;48.20;;;;;;4944001;28;20050;-74
2022/07/09 10:43:14;;;;;;;4.13;1.85;;;25.50;48.10;;;;;;4952057;28;20059;-75
2022/07/09 10:45:44;;;;;;;3.25;1.80;;;25.60;48.00;;;;;;4954064;28;20123;-74
2022/07/09 10:48:11;;;;;;;2.17;1.58;;;25.80;47.80;;;;;;4950233;28;20033;-75
2022/07/09 10:50:41;;;;;;;2.65;2.10;;;25.80;47.60;;;;;;4942993;28;20061;-73
2022/07/09 10:53:07;;;;;;;3.10;1.77;;;25.80;47.50;;;;;;4931681;28;20063;-73
2022/07/09 10:55:32;;;;;;;2.97;1.40;;;25.80;47.60;;;;;;4959920;28;20073;-73
2022/07/09 10:57:58;;;;;;;3.40;1.50;;;25.90;47.50;;;;;;4945271;28;20672;-75
2022/07/09 11:00:25;;;;;;;3.13;1.58;;;26.10;47.40;;;;;;4942273;28;20468;-74
2022/07/09 11:02:58;;;;;;;5.55;1.50;;;26.40;47.20;;;;;;4933713;28;20063;-74
2022/07/09 11:05:27;;;;;;;2.03;1.23;;;26.60;46.70;;;;;;4963433;28;20038;-73
2022/07/09 11:08:05;;;;;;;4.70;1.73;;;26.80;46.50;;;;;;4966330;28;20496;-73
2022/07/09 11:10:31;;;;;;;2.67;1.80;;;27.00;46.20;;;;;;4978914;28;20039;-73
2022/07/09 11:13:01;;;;;;;1.65;1.23;;;27.20;46.00;;;;;;4973115;28;20039;-71
2022/07/09 11:15:33;;;;;;;2.75;1.67;;;27.40;45.80;;;;;;4946431;28;20125;-72
2022/07/09 11:18:06;;;;;;;2.03;1.77;;;27.70;45.50;;;;;;4941010;28;20047;-72
2022/07/09 11:20:36;;;;;;;4.25;1.50;;;27.90;44.90;;;;;;4934794;28;20043;-72
2022/07/09 11:23:01;;;;;;;2.07;1.40;;;28.00;44.80;;;;;;4936918;28;20126;-72
2022/07/09 11:25:27;;;;;;;2.15;1.30;;;28.20;44.60;;;;;;4943238;28;20117;-71
2022/07/09 11:27:56;;;;;;;3.90;1.77;;;28.30;44.40;;;;;;4966230;28;20507;-71
2022/07/09 11:30:22;;;;;;;5.07;1.58;;;28.40;44.10;;;;;;4952715;28;20034;-72
2022/07/09 11:32:47;;;;;;;1.98;1.65;;;28.60;44.00;;;;;;4966059;28;20097;-72
2022/07/09 11:35:22;;;;;;;3.42;1.70;;;28.80;43.90;;;;;;4942923;28;20522;-72
2022/07/09 11:37:48;;;;;;;4.95;1.85;;;29.00;43.80;;;;;;4952609;28;20193;-72
2022/07/09 11:40:17;;;;;;;1.88;1.20;;;29.20;43.50;;;;;;4957217;28;20675;-73
2022/07/09 11:42:43;;;;;;;2.47;1.40;;;29.20;43.00;;;;;;4950087;28;20047;-72
2022/07/09 11:45:09;;;;;;;3.92;1.58;;;29.20;42.90;;;;;;4937469;28;20495;-72
2022/07/09 11:47:39;;;;;;;3.08;1.50;;;29.20;42.60;;;;;;4948563;28;20101;-72
2022/07/09 11:50:12;;;;;;;5.00;1.42;;;29.20;42.60;;;;;;4937907;28;20062;-72
2022/07/09 11:52:44;;;;;;;3.85;1.60;;;29.30;42.30;;;;;;4939155;28;20031;-71
2022/07/09 11:55:11;;;;;;;3.10;1.60;;;29.40;42.40;;;;;;4963505;28;20619;-72
2022/07/09 11:57:37;;;;;;;1.50;1.40;;;29.50;43.00;;;;;;4948171;28;20128;-71
2022/07/09 12:00:19;;;;;;;2.85;1.52;;;29.80;42.00;;;;;;4952128;28;20125;-72
2022/07/09 12:02:45;;;;;;;1.40;1.30;;;29.80;41.50;;;;;;4949499;28;20041;-71
2022/07/09 12:05:11;;;;;;;1.83;1.55;;;29.90;41.70;;;;;;4939487;28;20206;-72
2022/07/09 12:07:37;;;;;;;2.22;1.63;;;30.10;41.60;;;;;;4953804;28;20138;-72
2022/07/09 12:10:09;;;;;;;1.35;1.25;;;30.20;41.30;;;;;;4953479;28;20093;-72
2022/07/09 12:12:35;;;;;;;2.85;1.52;;;30.20;40.70;;;;;;4958622;28;20058;-72
2022/07/09 12:15:01;;;;;;;2.92;1.35;;;30.20;40.90;;;;;;4955665;28;20130;-71
2022/07/09 12:17:27;;;;;;;2.60;1.40;;;30.20;40.80;;;;;;4925417;28;20111;-72
2022/07/09 12:19:53;;;;;;;1.98;1.55;;;30.30;40.60;;;;;;4943708;28;20145;-71
2022/07/09 12:22:19;;;;;;;3.42;1.13;;;30.40;40.60;;;;;;4936567;28;20106;-71
2022/07/09 12:24:44;;;;;;;3.63;1.55;;;30.50;40.40;;;;;;4941734;28;20046;-73
2022/07/09 12:27:10;;;;;;;2.88;1.33;;;30.40;39.90;;;;;;4948015;28;20034;-73
2022/07/09 12:29:36;;;;;;;5.40;1.55;;;30.40;39.90;;;;;;4956281;28;20126;-74
2022/07/09 12:32:01;;;;;;;2.75;1.52;;;30.40;39.80;;;;;;4963167;28;20134;-73
2022/07/09 12:34:27;;;;;;;1.52;1.38;;;30.40;39.80;;;;;;4957365;28;20066;-73
2022/07/09 12:36:52;;;;;;;2.10;1.45;;;30.40;39.70;;;;;;4964233;28;20045;-74
2022/07/09 12:39:18;;;;;;;1.98;1.25;;;30.50;39.70;;;;;;4944314;28;20035;-74
2022/07/09 12:41:43;;;;;;;1.40;1.30;;;30.60;39.60;;;;;;4923303;28;21930;-72